sensor_id;sensor_type;location;lat;lon;timestamp;P1;durP1;ratioP1;P2;durP2;ratioP2
66179;SDS011;52986;44.028;20.466;2023-12-14T00:00:17;40.22;;;16.48;;
66179;SDS011;52986;44.028;20.466;2023-12-14T00:02:43;42.08;;;17.17;;
66179;SDS011;52986;44.028;20.466;2023-12-14T00:05:08;39.95;;;16.25;;
66179;SDS011;52986;44.028;20.466;2023-12-14T00:07:34;40.05;;;16.05;;
66179;SDS011;52986;44.028;20.466;2023-12-14T00:09:59;40.15;;;15.98;;
66179;SDS011;52986;44.028;20.466;2023-12-14T00:12:25;41.70;;;16.92;;
66179;SDS011;52986;44.028;20.466;2023-12-14T00:14:50;43.67;;;17.20;;
66179;SDS011;52986;44.028;20.466;2023-12-14T00:17:15;42.03;;;17.85;;
66179;SDS011;52986;44.028;20.466;2023-12-14T00:19:41;41.83;;;16.52;;
66179;SDS011;52986;44.028;20.466;2023-12-14T00:22:07;43.38;;;17.60;;
66179;SDS011;52986;44.028;20.466;2023-12-14T00:24:33;41.53;;;17.38;;
66179;SDS011;52986;44.028;20.466;2023-12-14T00:26:58;44.47;;;17.63;;
66179;SDS011;52986;44.028;20.466;2023-12-14T00:29:24;44.80;;;17.77;;
66179;SDS011;52986;44.028;20.466;2023-12-14T00:31:49;43.28;;;17.15;;
66179;SDS011;52986;44.028;20.466;2023-12-14T00:34:14;43.45;;;17.25;;
66179;SDS011;52986;44.028;20.466;2023-12-14T00:36:40;41.67;;;15.73;;
66179;SDS011;52986;44.028;20.466;2023-12-14T00:39:05;40.78;;;15.40;;
66179;SDS011;52986;44.028;20.466;2023-12-14T00:41:31;38.83;;;15.70;;
66179;SDS011;52986;44.028;20.466;2023-12-14T00:43:56;40.33;;;15.73;;
66179;SDS011;52986;44.028;20.466;2023-12-14T00:46:22;38.35;;;15.85;;
66179;SDS011;52986;44.028;20.466;2023-12-14T00:48:47;36.47;;;14.70;;
66179;SDS011;52986;44.028;20.466;2023-12-14T00:51:12;38.05;;;15.13;;
66179;SDS011;52986;44.028;20.466;2023-12-14T00:53:38;40.85;;;15.63;;
66179;SDS011;52986;44.028;20.466;2023-12-14T00:56:03;40.63;;;16.77;;
66179;SDS011;52986;44.028;20.466;2023-12-14T00:58:29;37.80;;;15.73;;
66179;SDS011;52986;44.028;20.466;2023-12-14T01:00:54;40.55;;;16.30;;
66179;SDS011;52986;44.028;20.466;2023-12-14T01:03:20;39.30;;;15.57;;
66179;SDS011;52986;44.028;20.466;2023-12-14T01:05:46;39.55;;;15.90;;
66179;SDS011;52986;44.028;20.466;2023-12-14T01:08:11;40.45;;;16.17;;
66179;SDS011;52986;44.028;20.466;2023-12-14T01:10:36;40.22;;;15.95;;
66179;SDS011;52986;44.028;20.466;2023-12-14T01:13:02;40.03;;;15.98;;
66179;SDS011;52986;44.028;20.466;2023-12-14T01:15:27;38.88;;;15.63;;
66179;SDS011;52986;44.028;20.466;2023-12-14T01:17:53;38.67;;;15.93;;
66179;SDS011;52986;44.028;20.466;2023-12-14T01:20:18;36.15;;;15.55;;
66179;SDS011;52986;44.028;20.466;2023-12-14T01:22:44;33.85;;;14.15;;
66179;SDS011;52986;44.028;20.466;2023-12-14T01:25:09;37.13;;;15.40;;
66179;SDS011;52986;44.028;20.466;2023-12-14T01:27:34;35.85;;;16.05;;
66179;SDS011;52986;44.028;20.466;2023-12-14T01:30:00;36.65;;;15.27;;
66179;SDS011;52986;44.028;20.466;2023-12-14T01:32:25;35.58;;;14.55;;
66179;SDS011;52986;44.028;20.466;2023-12-14T01:34:51;35.13;;;15.07;;
66179;SDS011;52986;44.028;20.466;2023-12-14T01:37:16;34.00;;;14.23;;
66179;SDS011;52986;44.028;20.466;2023-12-14T01:39:41;35.60;;;14.52;;
66179;SDS011;52986;44.028;20.466;2023-12-14T01:42:07;34.13;;;13.88;;
66179;SDS011;52986;44.028;20.466;2023-12-14T01:44:32;30.73;;;13.07;;
66179;SDS011;52986;44.028;20.466;2023-12-14T01:46:58;33.97;;;14.60;;
66179;SDS011;52986;44.028;20.466;2023-12-14T01:49:23;32.08;;;13.77;;
66179;SDS011;52986;44.028;20.466;2023-12-14T01:51:49;30.58;;;13.48;;
66179;SDS011;52986;44.028;20.466;2023-12-14T01:54:14;30.60;;;13.25;;
66179;SDS011;52986;44.028;20.466;2023-12-14T01:56:40;29.52;;;12.80;;
66179;SDS011;52986;44.028;20.466;2023-12-14T01:59:05;30.45;;;12.95;;
66179;SDS011;52986;44.028;20.466;2023-12-14T02:04:17;26.85;;;12.23;;
66179;SDS011;52986;44.028;20.466;2023-12-14T02:06:42;27.58;;;12.10;;
66179;SDS011;52986;44.028;20.466;2023-12-14T02:09:08;30.00;;;13.10;;
66179;SDS011;52986;44.028;20.466;2023-12-14T02:11:33;31.08;;;13.32;;
66179;SDS011;52986;44.028;20.466;2023-12-14T02:14:03;29.30;;;12.75;;
66179;SDS011;52986;44.028;20.466;2023-12-14T02:16:31;28.38;;;12.80;;
66179;SDS011;52986;44.028;20.466;2023-12-14T02:18:57;31.70;;;13.35;;
66179;SDS011;52986;44.028;20.466;2023-12-14T02:21:23;29.08;;;12.40;;
66179;SDS011;52986;44.028;20.466;2023-12-14T02:23:48;38.08;;;16.48;;
66179;SDS011;52986;44.028;20.466;2023-12-14T02:26:14;34.80;;;15.82;;
66179;SDS011;52986;44.028;20.466;2023-12-14T02:28:40;33.13;;;14.85;;
66179;SDS011;52986;44.028;20.466;2023-12-14T02:31:05;35.13;;;15.07;;
66179;SDS011;52986;44.028;20.466;2023-12-14T02:33:31;36.00;;;15.15;;
66179;SDS011;52986;44.028;20.466;2023-12-14T02:35:56;37.63;;;16.30;;
66179;SDS011;52986;44.028;20.466;2023-12-14T02:38:22;38.63;;;16.15;;
66179;SDS011;52986;44.028;20.466;2023-12-14T02:40:47;35.75;;;15.20;;
66179;SDS011;52986;44.028;20.466;2023-12-14T02:43:15;32.80;;;14.52;;
66179;SDS011;52986;44.028;20.466;2023-12-14T02:45:41;33.28;;;14.57;;
66179;SDS011;52986;44.028;20.466;2023-12-14T02:48:06;35.20;;;14.73;;
66179;SDS011;52986;44.028;20.466;2023-12-14T02:50:32;38.90;;;16.98;;
66179;SDS011;52986;44.028;20.466;2023-12-14T02:52:57;39.33;;;17.88;;
66179;SDS011;52986;44.028;20.466;2023-12-14T02:55:23;39.35;;;17.45;;
66179;SDS011;52986;44.028;20.466;2023-12-14T02:57:48;37.53;;;16.52;;
66179;SDS011;52986;44.028;20.466;2023-12-14T03:00:14;32.72;;;14.10;;
66179;SDS011;52986;44.028;20.466;2023-12-14T03:02:39;34.42;;;14.52;;
66179;SDS011;52986;44.028;20.466;2023-12-14T03:05:05;33.05;;;14.32;;
66179;SDS011;52986;44.028;20.466;2023-12-14T03:07:30;29.95;;;13.10;;
66179;SDS011;52986;44.028;20.466;2023-12-14T03:09:56;29.13;;;12.30;;
66179;SDS011;52986;44.028;20.466;2023-12-14T03:12:21;26.95;;;10.70;;
66179;SDS011;52986;44.028;20.466;2023-12-14T03:14:47;28.73;;;12.35;;
66179;SDS011;52986;44.028;20.466;2023-12-14T03:17:12;29.30;;;11.70;;
66179;SDS011;52986;44.028;20.466;2023-12-14T03:19:41;24.60;;;10.18;;
66179;SDS011;52986;44.028;20.466;2023-12-14T03:22:07;27.80;;;11.80;;
66179;SDS011;52986;44.028;20.466;2023-12-14T03:24:34;26.48;;;11.18;;
66179;SDS011;52986;44.028;20.466;2023-12-14T03:27:01;24.38;;;10.27;;
66179;SDS011;52986;44.028;20.466;2023-12-14T03:29:27;25.02;;;10.48;;
66179;SDS011;52986;44.028;20.466;2023-12-14T03:31:53;26.20;;;11.15;;
66179;SDS011;52986;44.028;20.466;2023-12-14T03:34:20;28.50;;;12.48;;
66179;SDS011;52986;44.028;20.466;2023-12-14T03:36:45;26.48;;;11.07;;
66179;SDS011;52986;44.028;20.466;2023-12-14T03:39:11;28.17;;;11.13;;
66179;SDS011;52986;44.028;20.466;2023-12-14T03:41:37;21.77;;;8.98;;
66179;SDS011;52986;44.028;20.466;2023-12-14T03:44:02;24.17;;;9.73;;
66179;SDS011;52986;44.028;20.466;2023-12-14T03:46:29;24.30;;;10.00;;
66179;SDS011;52986;44.028;20.466;2023-12-14T03:48:54;10.55;;;3.60;;
66179;SDS011;52986;44.028;20.466;2023-12-14T03:51:20;16.20;;;6.85;;
66179;SDS011;52986;44.028;20.466;2023-12-14T03:53:45;14.48;;;5.75;;
66179;SDS011;52986;44.028;20.466;2023-12-14T03:56:11;11.35;;;4.38;;
66179;SDS011;52986;44.028;20.466;2023-12-14T03:58:36;12.27;;;4.47;;
66179;SDS011;52986;44.028;20.466;2023-12-14T04:01:02;10.80;;;3.70;;
66179;SDS011;52986;44.028;20.466;2023-12-14T04:03:27;11.25;;;3.80;;
66179;SDS011;52986;44.028;20.466;2023-12-14T04:05:53;8.82;;;3.40;;
66179;SDS011;52986;44.028;20.466;2023-12-14T04:08:18;10.88;;;3.50;;
66179;SDS011;52986;44.028;20.466;2023-12-14T04:10:43;9.38;;;3.10;;
66179;SDS011;52986;44.028;20.466;2023-12-14T04:13:09;6.78;;;2.40;;
66179;SDS011;52986;44.028;20.466;2023-12-14T04:15:34;9.00;;;2.80;;
66179;SDS011;52986;44.028;20.466;2023-12-14T04:18:00;7.18;;;2.40;;
66179;SDS011;52986;44.028;20.466;2023-12-14T04:20:25;8.55;;;2.22;;
66179;SDS011;52986;44.028;20.466;2023-12-14T04:22:51;7.85;;;2.40;;
66179;SDS011;52986;44.028;20.466;2023-12-14T04:25:16;7.53;;;1.98;;
66179;SDS011;52986;44.028;20.466;2023-12-14T04:27:41;5.82;;;1.88;;
66179;SDS011;52986;44.028;20.466;2023-12-14T04:30:07;7.78;;;2.53;;
66179;SDS011;52986;44.028;20.466;2023-12-14T04:32:37;7.70;;;2.60;;
66179;SDS011;52986;44.028;20.466;2023-12-14T04:35:03;10.15;;;3.90;;
66179;SDS011;52986;44.028;20.466;2023-12-14T04:37:29;11.38;;;4.38;;
66179;SDS011;52986;44.028;20.466;2023-12-14T04:39:55;10.75;;;3.90;;
66179;SDS011;52986;44.028;20.466;2023-12-14T04:42:22;9.93;;;3.90;;
66179;SDS011;52986;44.028;20.466;2023-12-14T04:44:47;11.82;;;4.03;;
66179;SDS011;52986;44.028;20.466;2023-12-14T04:47:12;10.90;;;3.88;;
66179;SDS011;52986;44.028;20.466;2023-12-14T04:49:39;22.58;;;8.55;;
66179;SDS011;52986;44.028;20.466;2023-12-14T04:52:04;9.95;;;3.50;;
66179;SDS011;52986;44.028;20.466;2023-12-14T04:54:30;9.88;;;4.05;;
66179;SDS011;52986;44.028;20.466;2023-12-14T04:56:56;20.42;;;8.65;;
66179;SDS011;52986;44.028;20.466;2023-12-14T04:59:21;20.95;;;9.07;;
66179;SDS011;52986;44.028;20.466;2023-12-14T05:01:47;17.42;;;7.07;;
66179;SDS011;52986;44.028;20.466;2023-12-14T05:04:12;17.17;;;6.82;;
66179;SDS011;52986;44.028;20.466;2023-12-14T05:06:38;14.55;;;6.60;;
66179;SDS011;52986;44.028;20.466;2023-12-14T05:09:03;16.05;;;7.32;;
66179;SDS011;52986;44.028;20.466;2023-12-14T05:11:30;13.13;;;5.80;;
66179;SDS011;52986;44.028;20.466;2023-12-14T05:13:56;13.57;;;5.20;;
66179;SDS011;52986;44.028;20.466;2023-12-14T05:16:22;10.23;;;3.45;;
66179;SDS011;52986;44.028;20.466;2023-12-14T05:18:51;9.80;;;3.58;;
66179;SDS011;52986;44.028;20.466;2023-12-14T05:21:18;9.43;;;3.47;;
66179;SDS011;52986;44.028;20.466;2023-12-14T05:23:43;12.57;;;4.28;;
66179;SDS011;52986;44.028;20.466;2023-12-14T05:26:09;11.15;;;3.72;;
66179;SDS011;52986;44.028;20.466;2023-12-14T05:28:34;10.07;;;3.60;;
66179;SDS011;52986;44.028;20.466;2023-12-14T05:31:00;11.30;;;4.00;;
66179;SDS011;52986;44.028;20.466;2023-12-14T05:33:25;10.30;;;3.70;;
66179;SDS011;52986;44.028;20.466;2023-12-14T05:35:51;10.40;;;3.65;;
66179;SDS011;52986;44.028;20.466;2023-12-14T05:38:16;10.52;;;4.00;;
66179;SDS011;52986;44.028;20.466;2023-12-14T05:40:42;11.60;;;4.00;;
66179;SDS011;52986;44.028;20.466;2023-12-14T05:43:08;14.15;;;4.07;;
66179;SDS011;52986;44.028;20.466;2023-12-14T05:45:35;16.35;;;5.78;;
66179;SDS011;52986;44.028;20.466;2023-12-14T05:48:00;11.20;;;3.97;;
66179;SDS011;52986;44.028;20.466;2023-12-14T05:50:26;14.32;;;4.90;;
66179;SDS011;52986;44.028;20.466;2023-12-14T05:52:52;14.88;;;6.90;;
66179;SDS011;52986;44.028;20.466;2023-12-14T05:55:18;10.85;;;4.32;;
66179;SDS011;52986;44.028;20.466;2023-12-14T05:57:47;9.55;;;3.83;;
66179;SDS011;52986;44.028;20.466;2023-12-14T06:00:13;10.40;;;4.00;;
66179;SDS011;52986;44.028;20.466;2023-12-14T06:02:39;10.77;;;3.63;;
66179;SDS011;52986;44.028;20.466;2023-12-14T06:05:05;11.15;;;3.78;;
66179;SDS011;52986;44.028;20.466;2023-12-14T06:07:31;10.75;;;4.10;;
66179;SDS011;52986;44.028;20.466;2023-12-14T06:09:57;9.75;;;3.45;;
66179;SDS011;52986;44.028;20.466;2023-12-14T06:12:22;10.73;;;3.67;;
66179;SDS011;52986;44.028;20.466;2023-12-14T06:14:48;18.25;;;6.25;;
66179;SDS011;52986;44.028;20.466;2023-12-14T06:17:13;17.38;;;7.03;;
66179;SDS011;52986;44.028;20.466;2023-12-14T06:19:39;12.93;;;4.90;;
66179;SDS011;52986;44.028;20.466;2023-12-14T06:22:04;9.75;;;3.58;;
66179;SDS011;52986;44.028;20.466;2023-12-14T06:24:29;10.70;;;3.88;;
66179;SDS011;52986;44.028;20.466;2023-12-14T06:26:55;11.68;;;3.60;;
66179;SDS011;52986;44.028;20.466;2023-12-14T06:29:20;13.10;;;3.97;;
66179;SDS011;52986;44.028;20.466;2023-12-14T06:31:46;12.88;;;4.78;;
66179;SDS011;52986;44.028;20.466;2023-12-14T06:34:12;13.57;;;5.20;;
66179;SDS011;52986;44.028;20.466;2023-12-14T06:36:40;12.85;;;5.15;;
66179;SDS011;52986;44.028;20.466;2023-12-14T06:39:07;15.45;;;5.85;;
66179;SDS011;52986;44.028;20.466;2023-12-14T06:41:32;13.07;;;5.60;;
66179;SDS011;52986;44.028;20.466;2023-12-14T06:43:58;13.95;;;5.63;;
66179;SDS011;52986;44.028;20.466;2023-12-14T06:46:23;10.35;;;4.20;;
66179;SDS011;52986;44.028;20.466;2023-12-14T06:48:49;13.35;;;4.90;;
66179;SDS011;52986;44.028;20.466;2023-12-14T06:51:14;15.68;;;5.70;;
66179;SDS011;52986;44.028;20.466;2023-12-14T06:53:41;13.10;;;5.05;;
66179;SDS011;52986;44.028;20.466;2023-12-14T06:56:08;7.95;;;2.42;;
66179;SDS011;52986;44.028;20.466;2023-12-14T06:58:38;8.38;;;2.65;;
66179;SDS011;52986;44.028;20.466;2023-12-14T07:01:04;10.38;;;3.70;;
66179;SDS011;52986;44.028;20.466;2023-12-14T07:03:30;9.10;;;3.60;;
66179;SDS011;52986;44.028;20.466;2023-12-14T07:05:56;10.13;;;4.15;;
66179;SDS011;52986;44.028;20.466;2023-12-14T07:08:22;17.77;;;7.85;;
66179;SDS011;52986;44.028;20.466;2023-12-14T07:10:48;15.82;;;7.30;;
66179;SDS011;52986;44.028;20.466;2023-12-14T07:13:13;11.93;;;4.47;;
66179;SDS011;52986;44.028;20.466;2023-12-14T07:15:39;10.85;;;4.72;;
66179;SDS011;52986;44.028;20.466;2023-12-14T07:18:04;14.57;;;5.35;;
66179;SDS011;52986;44.028;20.466;2023-12-14T07:20:30;17.23;;;7.13;;
66179;SDS011;52986;44.028;20.466;2023-12-14T07:22:55;20.13;;;8.32;;
66179;SDS011;52986;44.028;20.466;2023-12-14T07:25:21;16.98;;;7.30;;
66179;SDS011;52986;44.028;20.466;2023-12-14T07:27:46;17.25;;;6.80;;
66179;SDS011;52986;44.028;20.466;2023-12-14T07:30:12;17.45;;;6.40;;
66179;SDS011;52986;44.028;20.466;2023-12-14T07:32:38;18.85;;;7.78;;
66179;SDS011;52986;44.028;20.466;2023-12-14T07:35:03;13.40;;;4.93;;
66179;SDS011;52986;44.028;20.466;2023-12-14T07:37:30;12.07;;;4.65;;
66179;SDS011;52986;44.028;20.466;2023-12-14T07:39:55;12.82;;;5.13;;
66179;SDS011;52986;44.028;20.466;2023-12-14T07:42:20;12.25;;;4.43;;
66179;SDS011;52986;44.028;20.466;2023-12-14T07:44:46;6.68;;;2.10;;
66179;SDS011;52986;44.028;20.466;2023-12-14T07:47:12;8.88;;;2.78;;
66179;SDS011;52986;44.028;20.466;2023-12-14T07:49:37;8.20;;;2.42;;
66179;SDS011;52986;44.028;20.466;2023-12-14T07:52:03;7.55;;;2.55;;
66179;SDS011;52986;44.028;20.466;2023-12-14T07:54:28;7.53;;;2.88;;
66179;SDS011;52986;44.028;20.466;2023-12-14T07:56:54;7.30;;;2.38;;
66179;SDS011;52986;44.028;20.466;2023-12-14T07:59:19;9.23;;;2.35;;
66179;SDS011;52986;44.028;20.466;2023-12-14T08:01:47;8.93;;;2.42;;
66179;SDS011;52986;44.028;20.466;2023-12-14T08:04:12;7.70;;;2.30;;
66179;SDS011;52986;44.028;20.466;2023-12-14T08:06:38;7.07;;;2.10;;
66179;SDS011;52986;44.028;20.466;2023-12-14T08:09:04;7.20;;;2.42;;
66179;SDS011;52986;44.028;20.466;2023-12-14T08:11:31;6.60;;;1.92;;
66179;SDS011;52986;44.028;20.466;2023-12-14T08:13:57;7.50;;;2.58;;
66179;SDS011;52986;44.028;20.466;2023-12-14T08:16:22;10.20;;;3.70;;
66179;SDS011;52986;44.028;20.466;2023-12-14T08:18:47;10.45;;;3.80;;
66179;SDS011;52986;44.028;20.466;2023-12-14T08:21:13;14.35;;;4.20;;
66179;SDS011;52986;44.028;20.466;2023-12-14T08:23:39;11.27;;;3.60;;
66179;SDS011;52986;44.028;20.466;2023-12-14T08:26:05;7.93;;;2.50;;
66179;SDS011;52986;44.028;20.466;2023-12-14T08:28:30;7.97;;;2.50;;
66179;SDS011;52986;44.028;20.466;2023-12-14T08:30:56;7.68;;;2.83;;
66179;SDS011;52986;44.028;20.466;2023-12-14T08:33:27;8.48;;;2.85;;
66179;SDS011;52986;44.028;20.466;2023-12-14T08:35:53;7.82;;;2.20;;
66179;SDS011;52986;44.028;20.466;2023-12-14T08:38:18;9.20;;;2.70;;
66179;SDS011;52986;44.028;20.466;2023-12-14T08:40:43;7.00;;;2.47;;
66179;SDS011;52986;44.028;20.466;2023-12-14T08:43:09;8.63;;;2.70;;
66179;SDS011;52986;44.028;20.466;2023-12-14T08:45:34;7.43;;;2.30;;
66179;SDS011;52986;44.028;20.466;2023-12-14T08:48:00;6.55;;;2.15;;
66179;SDS011;52986;44.028;20.466;2023-12-14T08:50:25;6.88;;;2.20;;
66179;SDS011;52986;44.028;20.466;2023-12-14T08:52:53;12.60;;;4.80;;
66179;SDS011;52986;44.028;20.466;2023-12-14T08:55:19;14.35;;;5.40;;
66179;SDS011;52986;44.028;20.466;2023-12-14T08:57:44;19.42;;;8.25;;
66179;SDS011;52986;44.028;20.466;2023-12-14T09:00:10;17.48;;;7.30;;
66179;SDS011;52986;44.028;20.466;2023-12-14T09:02:36;18.13;;;7.60;;
66179;SDS011;52986;44.028;20.466;2023-12-14T09:05:01;12.38;;;4.80;;
66179;SDS011;52986;44.028;20.466;2023-12-14T09:07:27;13.32;;;6.22;;
66179;SDS011;52986;44.028;20.466;2023-12-14T09:09:53;12.98;;;5.78;;
66179;SDS011;52986;44.028;20.466;2023-12-14T09:12:19;13.02;;;5.45;;
66179;SDS011;52986;44.028;20.466;2023-12-14T09:14:44;13.20;;;5.38;;
66179;SDS011;52986;44.028;20.466;2023-12-14T09:17:10;14.23;;;6.43;;
66179;SDS011;52986;44.028;20.466;2023-12-14T09:19:35;12.18;;;4.43;;
66179;SDS011;52986;44.028;20.466;2023-12-14T09:22:01;14.02;;;5.40;;
66179;SDS011;52986;44.028;20.466;2023-12-14T09:24:26;14.00;;;5.88;;
66179;SDS011;52986;44.028;20.466;2023-12-14T09:26:52;14.38;;;6.38;;
66179;SDS011;52986;44.028;20.466;2023-12-14T09:29:17;14.75;;;5.70;;
66179;SDS011;52986;44.028;20.466;2023-12-14T09:31:43;14.73;;;5.80;;
66179;SDS011;52986;44.028;20.466;2023-12-14T09:34:09;17.85;;;7.20;;
66179;SDS011;52986;44.028;20.466;2023-12-14T09:36:36;26.15;;;8.75;;
66179;SDS011;52986;44.028;20.466;2023-12-14T09:39:02;28.42;;;11.35;;
66179;SDS011;52986;44.028;20.466;2023-12-14T09:41:27;15.43;;;5.50;;
66179;SDS011;52986;44.028;20.466;2023-12-14T09:43:53;13.13;;;4.50;;
66179;SDS011;52986;44.028;20.466;2023-12-14T09:46:18;11.40;;;4.30;;
66179;SDS011;52986;44.028;20.466;2023-12-14T09:48:46;11.23;;;4.28;;
66179;SDS011;52986;44.028;20.466;2023-12-14T09:51:13;11.38;;;4.55;;
66179;SDS011;52986;44.028;20.466;2023-12-14T09:53:40;11.18;;;4.60;;
66179;SDS011;52986;44.028;20.466;2023-12-14T09:56:06;12.55;;;5.10;;
66179;SDS011;52986;44.028;20.466;2023-12-14T09:58:32;10.88;;;4.57;;
66179;SDS011;52986;44.028;20.466;2023-12-14T10:00:58;13.13;;;5.90;;
66179;SDS011;52986;44.028;20.466;2023-12-14T10:03:26;20.27;;;9.65;;
66179;SDS011;52986;44.028;20.466;2023-12-14T10:05:56;17.58;;;8.63;;
66179;SDS011;52986;44.028;20.466;2023-12-14T10:08:23;17.63;;;8.05;;
66179;SDS011;52986;44.028;20.466;2023-12-14T10:10:51;16.33;;;8.13;;
66179;SDS011;52986;44.028;20.466;2023-12-14T10:13:18;12.15;;;5.57;;
66179;SDS011;52986;44.028;20.466;2023-12-14T10:15:45;18.42;;;10.00;;
66179;SDS011;52986;44.028;20.466;2023-12-14T10:18:12;10.63;;;4.60;;
66179;SDS011;52986;44.028;20.466;2023-12-14T10:20:46;11.07;;;4.40;;
66179;SDS011;52986;44.028;20.466;2023-12-14T10:23:12;12.50;;;5.00;;
66179;SDS011;52986;44.028;20.466;2023-12-14T10:25:38;14.13;;;4.90;;
66179;SDS011;52986;44.028;20.466;2023-12-14T10:28:03;10.05;;;4.55;;
66179;SDS011;52986;44.028;20.466;2023-12-14T10:30:29;9.70;;;4.18;;
66179;SDS011;52986;44.028;20.466;2023-12-14T10:32:56;8.30;;;3.40;;
66179;SDS011;52986;44.028;20.466;2023-12-14T10:35:21;8.75;;;3.25;;
66179;SDS011;52986;44.028;20.466;2023-12-14T10:37:49;9.77;;;3.90;;
66179;SDS011;52986;44.028;20.466;2023-12-14T10:40:16;9.73;;;4.07;;
66179;SDS011;52986;44.028;20.466;2023-12-14T10:42:42;10.82;;;4.50;;
66179;SDS011;52986;44.028;20.466;2023-12-14T10:45:12;12.75;;;6.00;;
66179;SDS011;52986;44.028;20.466;2023-12-14T10:47:43;14.23;;;6.00;;
66179;SDS011;52986;44.028;20.466;2023-12-14T10:50:09;15.73;;;7.25;;
66179;SDS011;52986;44.028;20.466;2023-12-14T10:52:36;17.88;;;8.60;;
66179;SDS011;52986;44.028;20.466;2023-12-14T10:55:06;23.58;;;12.25;;
66179;SDS011;52986;44.028;20.466;2023-12-14T10:57:35;22.67;;;10.57;;
66179;SDS011;52986;44.028;20.466;2023-12-14T11:00:04;34.53;;;16.40;;
66179;SDS011;52986;44.028;20.466;2023-12-14T11:05:05;14.65;;;5.90;;
66179;SDS011;52986;44.028;20.466;2023-12-14T11:10:20;15.38;;;6.95;;
66179;SDS011;52986;44.028;20.466;2023-12-14T11:13:07;31.08;;;13.75;;
66179;SDS011;52986;44.028;20.466;2023-12-14T11:15:36;16.05;;;7.13;;
66179;SDS011;52986;44.028;20.466;2023-12-14T11:23:14;17.15;;;7.22;;
66179;SDS011;52986;44.028;20.466;2023-12-14T11:28:08;29.88;;;13.43;;
66179;SDS011;52986;44.028;20.466;2023-12-14T11:30:34;28.85;;;12.63;;
66179;SDS011;52986;44.028;20.466;2023-12-14T11:33:00;23.45;;;11.00;;
66179;SDS011;52986;44.028;20.466;2023-12-14T11:35:25;24.67;;;11.82;;
66179;SDS011;52986;44.028;20.466;2023-12-14T11:37:51;31.73;;;15.43;;
66179;SDS011;52986;44.028;20.466;2023-12-14T11:40:16;25.50;;;11.93;;
66179;SDS011;52986;44.028;20.466;2023-12-14T11:43:00;36.47;;;18.60;;
66179;SDS011;52986;44.028;20.466;2023-12-14T11:45:33;36.33;;;19.63;;
66179;SDS011;52986;44.028;20.466;2023-12-14T11:48:01;47.88;;;24.20;;
66179;SDS011;52986;44.028;20.466;2023-12-14T11:50:30;43.83;;;23.77;;
66179;SDS011;52986;44.028;20.466;2023-12-14T11:52:55;45.35;;;23.30;;
66179;SDS011;52986;44.028;20.466;2023-12-14T11:55:21;43.80;;;22.92;;
66179;SDS011;52986;44.028;20.466;2023-12-14T11:57:47;41.00;;;21.73;;
66179;SDS011;52986;44.028;20.466;2023-12-14T12:00:13;37.70;;;20.67;;
66179;SDS011;52986;44.028;20.466;2023-12-14T12:02:39;35.67;;;19.30;;
66179;SDS011;52986;44.028;20.466;2023-12-14T12:05:06;35.85;;;20.27;;
66179;SDS011;52986;44.028;20.466;2023-12-14T12:07:32;33.10;;;18.58;;
66179;SDS011;52986;44.028;20.466;2023-12-14T12:09:58;31.92;;;17.67;;
66179;SDS011;52986;44.028;20.466;2023-12-14T12:12:23;37.05;;;20.90;;
66179;SDS011;52986;44.028;20.466;2023-12-14T12:14:49;48.17;;;26.98;;
66179;SDS011;52986;44.028;20.466;2023-12-14T12:17:17;50.63;;;25.45;;
66179;SDS011;52986;44.028;20.466;2023-12-14T12:19:44;47.08;;;25.88;;
66179;SDS011;52986;44.028;20.466;2023-12-14T12:22:10;45.58;;;23.52;;
66179;SDS011;52986;44.028;20.466;2023-12-14T12:24:36;50.50;;;27.27;;
66179;SDS011;52986;44.028;20.466;2023-12-14T12:27:02;56.00;;;30.30;;
66179;SDS011;52986;44.028;20.466;2023-12-14T12:29:29;63.28;;;33.67;;
66179;SDS011;52986;44.028;20.466;2023-12-14T12:31:55;61.33;;;33.83;;
66179;SDS011;52986;44.028;20.466;2023-12-14T12:34:20;47.45;;;26.75;;
66179;SDS011;52986;44.028;20.466;2023-12-14T12:36:46;53.90;;;29.75;;
66179;SDS011;52986;44.028;20.466;2023-12-14T12:39:12;51.60;;;27.98;;
66179;SDS011;52986;44.028;20.466;2023-12-14T12:41:37;48.30;;;25.55;;
66179;SDS011;52986;44.028;20.466;2023-12-14T12:44:03;55.65;;;29.40;;
66179;SDS011;52986;44.028;20.466;2023-12-14T12:46:36;49.80;;;26.80;;
66179;SDS011;52986;44.028;20.466;2023-12-14T12:49:02;42.60;;;21.25;;
66179;SDS011;52986;44.028;20.466;2023-12-14T12:51:29;45.00;;;21.92;;
66179;SDS011;52986;44.028;20.466;2023-12-14T12:53:55;25.67;;;12.70;;
66179;SDS011;52986;44.028;20.466;2023-12-14T12:56:22;28.70;;;14.00;;
66179;SDS011;52986;44.028;20.466;2023-12-14T12:58:49;37.15;;;17.45;;
66179;SDS011;52986;44.028;20.466;2023-12-14T13:01:15;34.10;;;14.98;;
66179;SDS011;52986;44.028;20.466;2023-12-14T13:03:40;30.15;;;13.93;;
66179;SDS011;52986;44.028;20.466;2023-12-14T13:06:06;30.98;;;15.13;;
66179;SDS011;52986;44.028;20.466;2023-12-14T13:08:31;30.40;;;15.40;;
66179;SDS011;52986;44.028;20.466;2023-12-14T13:10:57;30.17;;;14.52;;
66179;SDS011;52986;44.028;20.466;2023-12-14T13:13:22;26.83;;;12.70;;
66179;SDS011;52986;44.028;20.466;2023-12-14T13:15:48;27.88;;;13.68;;
66179;SDS011;52986;44.028;20.466;2023-12-14T13:18:14;33.08;;;14.85;;
66179;SDS011;52986;44.028;20.466;2023-12-14T13:20:41;32.45;;;15.10;;
66179;SDS011;52986;44.028;20.466;2023-12-14T13:23:07;29.73;;;13.73;;
66179;SDS011;52986;44.028;20.466;2023-12-14T13:25:33;23.30;;;10.93;;
66179;SDS011;52986;44.028;20.466;2023-12-14T13:27:59;24.88;;;11.55;;
66179;SDS011;52986;44.028;20.466;2023-12-14T13:30:24;24.70;;;11.20;;
66179;SDS011;52986;44.028;20.466;2023-12-14T13:32:50;22.05;;;10.23;;
66179;SDS011;52986;44.028;20.466;2023-12-14T13:35:15;25.00;;;10.93;;
66179;SDS011;52986;44.028;20.466;2023-12-14T13:37:41;28.48;;;13.52;;
66179;SDS011;52986;44.028;20.466;2023-12-14T13:40:07;22.13;;;10.30;;
66179;SDS011;52986;44.028;20.466;2023-12-14T13:42:34;22.60;;;10.80;;
66179;SDS011;52986;44.028;20.466;2023-12-14T13:45:00;27.70;;;13.23;;
66179;SDS011;52986;44.028;20.466;2023-12-14T13:47:25;29.77;;;13.45;;
66179;SDS011;52986;44.028;20.466;2023-12-14T13:49:51;24.60;;;12.43;;
66179;SDS011;52986;44.028;20.466;2023-12-14T13:52:18;25.58;;;12.32;;
66179;SDS011;52986;44.028;20.466;2023-12-14T13:54:43;28.35;;;13.70;;
66179;SDS011;52986;44.028;20.466;2023-12-14T13:57:09;30.90;;;14.20;;
66179;SDS011;52986;44.028;20.466;2023-12-14T13:59:34;29.15;;;13.38;;
66179;SDS011;52986;44.028;20.466;2023-12-14T14:01:59;30.92;;;13.85;;
66179;SDS011;52986;44.028;20.466;2023-12-14T14:04:25;28.20;;;12.43;;
66179;SDS011;52986;44.028;20.466;2023-12-14T14:06:50;31.83;;;12.93;;
66179;SDS011;52986;44.028;20.466;2023-12-14T14:09:16;29.88;;;13.48;;
66179;SDS011;52986;44.028;20.466;2023-12-14T14:11:41;24.70;;;10.80;;
66179;SDS011;52986;44.028;20.466;2023-12-14T14:14:11;15.27;;;6.50;;
66179;SDS011;52986;44.028;20.466;2023-12-14T14:16:36;15.13;;;6.25;;
66179;SDS011;52986;44.028;20.466;2023-12-14T14:19:02;16.38;;;7.40;;
66179;SDS011;52986;44.028;20.466;2023-12-14T14:21:27;17.63;;;8.10;;
66179;SDS011;52986;44.028;20.466;2023-12-14T14:23:54;14.13;;;6.82;;
66179;SDS011;52986;44.028;20.466;2023-12-14T14:26:19;18.98;;;9.18;;